createdAt,value
2024-05-09T00:01:14.920Z,83.42
2024-05-09T00:06:16.539Z,83.26
2024-05-09T00:11:18.187Z,83.20
2024-05-09T00:16:19.748Z,83.59
2024-05-09T00:21:21.278Z,84.24
2024-05-09T00:26:24.280Z,83.23
2024-05-09T00:31:26.673Z,82.81
2024-05-09T00:36:28.234Z,82.03
2024-05-09T00:41:29.936Z,82.05
2024-05-09T00:46:31.513Z,82.06
2024-05-09T00:51:33.052Z,81.51
2024-05-09T00:56:35.231Z,81.84
2024-05-09T01:01:36.979Z,81.80
2024-05-09T01:06:38.584Z,82.13
2024-05-09T01:11:40.630Z,82.00
2024-05-09T01:16:42.488Z,82.30
2024-05-09T01:21:44.140Z,81.62
2024-05-09T01:26:45.643Z,81.79
2024-05-09T01:31:47.627Z,82.18
2024-05-09T01:36:49.185Z,82.66
2024-05-09T01:41:50.703Z,82.61
2024-05-09T01:46:52.268Z,82.82
2024-05-09T01:51:53.861Z,82.48
2024-05-09T01:56:55.976Z,82.34
2024-05-09T02:01:58.047Z,82.07
2024-05-09T02:06:59.719Z,81.60
2024-05-09T02:12:01.505Z,81.96
2024-05-09T02:17:03.352Z,81.03
2024-05-09T02:22:04.955Z,80.52
2024-05-09T02:27:06.570Z,80.24
2024-05-09T02:32:08.826Z,80.40
2024-05-09T02:37:10.473Z,80.25
2024-05-09T02:42:12.019Z,80.20
2024-05-09T02:47:14.042Z,80.08
2024-05-09T02:52:17.458Z,80.29
2024-05-09T02:57:18.976Z,80.42
2024-05-09T03:02:20.624Z,80.49
2024-05-09T03:07:22.221Z,80.28
2024-05-09T03:12:23.802Z,79.83
2024-05-09T03:17:25.496Z,79.45
2024-05-09T03:22:28.060Z,79.91
2024-05-09T03:27:29.575Z,79.97
2024-05-09T03:32:31.184Z,79.62
2024-05-09T03:37:32.967Z,80.02
2024-05-09T03:42:40.672Z,80.02
2024-05-09T03:47:42.610Z,80.55
2024-05-09T03:52:44.365Z,80.52
2024-05-09T03:57:45.894Z,80.83
2024-05-09T04:02:47.619Z,81.24
2024-05-09T04:07:49.307Z,81.29
2024-05-09T04:12:53.151Z,81.03
2024-05-09T04:17:54.918Z,80.84
2024-05-09T04:22:56.693Z,80.65
2024-05-09T04:27:58.326Z,81.09
2024-05-09T04:32:59.954Z,80.84
2024-05-09T04:38:01.973Z,80.57
2024-05-09T04:43:04.115Z,80.76
2024-05-09T04:48:06.308Z,80.71
2024-05-09T04:53:10.401Z,80.87
2024-05-09T04:58:12.999Z,80.74
2024-05-09T05:03:16.066Z,80.67
2024-05-09T05:08:19.236Z,81.06
2024-05-09T05:13:23.798Z,81.76
2024-05-09T05:18:27.633Z,81.99
2024-05-09T05:23:29.621Z,82.41
2024-05-09T05:28:31.292Z,82.89
2024-05-09T05:33:33.068Z,82.81
2024-05-09T05:38:34.940Z,83.34
2024-05-09T05:43:36.520Z,83.59
2024-05-09T05:48:38.231Z,84.01
2024-05-09T05:53:40.077Z,83.76
2024-05-09T05:58:43.120Z,83.77
2024-05-09T06:03:44.972Z,83.34
2024-05-09T06:08:46.912Z,82.25
2024-05-09T06:13:48.517Z,82.25
2024-05-09T06:18:50.215Z,81.14
2024-05-09T06:23:53.352Z,80.54
2024-05-09T06:28:54.961Z,81.03
2024-05-09T06:33:56.630Z,80.38
2024-05-09T06:38:58.251Z,80.26
2024-05-09T06:43:59.795Z,79.87
2024-05-09T06:49:07.989Z,79.09
2024-05-09T06:54:09.922Z,78.41
2024-05-09T06:59:11.538Z,78.72
2024-05-09T07:04:13.380Z,78.46
2024-05-09T07:09:15.043Z,78.31
2024-05-09T07:14:16.917Z,78.35
2024-05-09T07:19:19.212Z,77.87
2024-05-09T07:24:20.876Z,77.90
2024-05-09T07:29:22.503Z,78.08
2024-05-09T07:34:25.197Z,78.61
2024-05-09T07:39:26.950Z,79.00
2024-05-09T07:44:30.387Z,78.64
2024-05-09T07:54:37.266Z,78.68
2024-05-09T07:59:38.867Z,78.55
2024-05-09T08:04:40.628Z,79.08
2024-05-09T08:09:42.273Z,77.75
2024-05-09T08:14:43.906Z,75.35
2024-05-09T08:19:45.588Z,74.08
2024-05-09T08:24:47.281Z,72.72
2024-05-09T08:29:48.966Z,73.87
2024-05-09T08:34:50.556Z,73.58
2024-05-09T08:39:52.304Z,74.93
2024-05-09T08:44:53.882Z,73.85
2024-05-09T08:49:58.693Z,73.97
2024-05-09T08:55:00.859Z,75.09
2024-05-09T09:00:06.249Z,76.00
2024-05-09T09:05:11.351Z,76.87
2024-05-09T09:10:21.085Z,76.60
2024-05-09T09:15:26.911Z,75.68
2024-05-09T09:20:35.867Z,74.92
2024-05-09T09:25:42.189Z,74.61
2024-05-09T09:30:43.796Z,73.94
2024-05-09T09:35:45.487Z,74.78
2024-05-09T09:40:50.493Z,74.55
2024-05-09T09:45:53.582Z,74.25
2024-05-09T09:50:56.591Z,69.96
2024-05-09T09:55:59.179Z,70.15
2024-05-09T10:01:01.039Z,69.97
2024-05-09T10:06:03.388Z,70.70
2024-05-09T10:11:06.463Z,70.79
2024-05-09T10:16:11.828Z,70.91
2024-05-09T10:21:16.954Z,71.22
2024-05-09T10:26:18.493Z,71.50
2024-05-09T10:31:20.206Z,71.83
2024-05-09T10:36:21.865Z,70.66
2024-05-09T10:41:23.761Z,70.77
2024-05-09T10:46:25.559Z,71.31
2024-05-09T10:51:27.263Z,70.21
2024-05-09T10:56:28.974Z,68.31
2024-05-09T11:01:31.207Z,64.89
2024-05-09T11:06:35.001Z,65.44
2024-05-09T11:11:36.706Z,64.74
2024-05-09T11:16:38.362Z,64.64
2024-05-09T11:21:40.262Z,64.65
2024-05-09T11:26:43.317Z,65.77
2024-05-09T11:31:48.240Z,67.00
2024-05-09T11:36:49.969Z,66.63
2024-05-09T11:41:51.598Z,67.10
2024-05-09T11:46:53.573Z,67.03
2024-05-09T11:51:55.240Z,67.88
2024-05-09T11:56:56.808Z,67.62
2024-05-09T12:01:58.471Z,66.72
2024-05-09T12:07:00.179Z,66.80
2024-05-09T12:12:01.913Z,64.14
2024-05-09T12:17:04.031Z,64.39
2024-05-09T12:22:05.700Z,64.29
2024-05-09T12:27:07.252Z,65.95
2024-05-09T12:32:08.895Z,65.49
2024-05-09T12:37:10.649Z,65.62
2024-05-09T12:42:19.261Z,66.03
2024-05-09T12:47:27.726Z,66.51
2024-05-09T12:52:29.347Z,67.43
2024-05-09T12:57:30.913Z,64.86
2024-05-09T13:02:32.533Z,62.33
2024-05-09T13:07:34.181Z,63.39
2024-05-09T13:12:35.880Z,62.31
2024-05-09T13:17:37.631Z,59.39
2024-05-09T13:22:39.806Z,56.95
2024-05-09T13:27:41.416Z,55.84
2024-05-09T13:32:43.004Z,55.45
2024-05-09T13:37:44.644Z,57.88
2024-05-09T13:42:48.699Z,56.27
2024-05-09T13:47:50.481Z,56.78
2024-05-09T13:52:52.109Z,56.59
2024-05-09T13:57:53.868Z,56.09
2024-05-09T14:02:55.629Z,57.17
2024-05-09T14:07:57.459Z,56.81
2024-05-09T14:12:59.972Z,54.92
2024-05-09T14:18:02.089Z,54.13
2024-05-09T14:23:03.692Z,56.10
2024-05-09T14:28:05.629Z,56.67
2024-05-09T14:33:08.627Z,58.04
2024-05-09T14:38:10.938Z,58.18
2024-05-09T14:43:13.753Z,58.57
2024-05-09T14:48:16.491Z,59.10
2024-05-09T14:53:18.158Z,59.70
2024-05-09T14:58:20.075Z,59.83
2024-05-09T15:03:22.564Z,57.17
2024-05-09T15:08:24.413Z,56.45
2024-05-09T15:13:26.107Z,53.46
2024-05-09T15:18:28.026Z,54.87
2024-05-09T15:23:29.805Z,55.20
2024-05-09T15:28:31.505Z,56.68
2024-05-09T15:33:33.227Z,56.74
2024-05-09T15:38:35.283Z,56.18
2024-05-09T15:43:36.848Z,54.84
2024-05-09T15:48:40.378Z,56.67
2024-05-09T15:53:42.704Z,56.50
2024-05-09T15:58:44.278Z,57.39
2024-05-09T16:03:47.955Z,57.48
2024-05-09T16:08:49.692Z,58.52
2024-05-09T16:13:51.279Z,59.15
2024-05-09T16:18:53.445Z,59.50
2024-05-09T16:23:55.163Z,59.45
2024-05-09T16:28:56.804Z,57.79
2024-05-09T16:33:58.542Z,55.27
2024-05-09T16:39:00.139Z,54.98
2024-05-09T16:44:01.842Z,54.95
2024-05-09T16:49:03.507Z,57.06
2024-05-09T16:54:05.035Z,59.03
2024-05-09T16:59:06.563Z,60.69
2024-05-09T17:04:08.346Z,62.19
2024-05-09T17:09:11.999Z,63.19
2024-05-09T17:14:17.196Z,63.55
2024-05-09T17:19:19.430Z,62.72
2024-05-09T17:24:21.043Z,62.87
2024-05-09T17:29:22.600Z,61.83
2024-05-09T17:34:24.684Z,60.81
2024-05-09T17:39:26.375Z,60.41
2024-05-09T17:44:27.949Z,60.53
2024-05-09T17:49:29.593Z,59.88
2024-05-09T17:54:31.232Z,59.52
2024-05-09T17:59:32.869Z,59.47
2024-05-09T18:04:34.557Z,60.67
2024-05-09T18:09:36.190Z,60.80
2024-05-09T18:14:37.712Z,61.28
2024-05-09T18:19:39.398Z,61.58
2024-05-09T18:24:40.995Z,61.89
2024-05-09T18:29:42.531Z,62.03
2024-05-09T18:34:44.130Z,62.55
2024-05-09T18:39:45.708Z,62.13
2024-05-09T18:44:47.248Z,62.92
2024-05-09T18:49:48.860Z,63.76
2024-05-09T18:54:51.537Z,64.23
2024-05-09T18:59:53.124Z,65.05
2024-05-09T19:04:54.925Z,65.18
2024-05-09T19:09:56.533Z,65.35
2024-05-09T19:14:58.117Z,65.47
2024-05-09T19:19:59.704Z,65.87
2024-05-09T19:25:01.376Z,65.37
2024-05-09T19:35:04.923Z,65.34
2024-05-09T19:40:10.335Z,65.21
2024-05-09T19:45:14.236Z,65.32
2024-05-09T19:50:22.492Z,65.89
2024-05-09T19:55:28.456Z,65.73
2024-05-09T20:00:35.662Z,66.12
2024-05-09T20:05:39.538Z,66.23
2024-05-09T20:10:41.428Z,66.64
2024-05-09T20:15:43.302Z,66.79
2024-05-09T20:20:45.574Z,66.85
2024-05-09T20:25:47.498Z,67.28
2024-05-09T20:30:49.089Z,67.23
2024-05-09T20:35:51.448Z,67.50
2024-05-09T20:40:53.024Z,67.62
2024-05-09T20:45:54.644Z,68.03
2024-05-09T20:50:56.181Z,68.13
2024-05-09T20:55:57.815Z,68.22
2024-05-09T21:00:59.455Z,68.46
2024-05-09T21:06:01.017Z,68.43
2024-05-09T21:11:02.644Z,68.62
2024-05-09T21:16:04.692Z,68.77
2024-05-09T21:21:06.309Z,68.86
2024-05-09T21:26:08.496Z,68.75
2024-05-09T21:31:10.220Z,68.95
2024-05-09T21:36:11.846Z,68.64
2024-05-09T21:41:13.454Z,68.88
2024-05-09T21:46:15.029Z,69.34
2024-05-09T21:51:16.755Z,68.98
2024-05-09T21:56:18.282Z,68.69
2024-05-09T22:01:20.012Z,68.15
2024-05-09T22:06:21.658Z,67.71
2024-05-09T22:11:23.339Z,67.41
2024-05-09T22:16:25.126Z,67.07
2024-05-09T22:21:26.743Z,66.45
2024-05-09T22:26:28.289Z,66.72
2024-05-09T22:31:29.919Z,67.38
2024-05-09T22:36:31.558Z,67.62
2024-05-09T22:41:33.197Z,67.89
2024-05-09T22:46:34.797Z,68.38
2024-05-09T22:51:36.411Z,68.62
2024-05-09T22:56:37.939Z,68.85
2024-05-09T23:01:39.639Z,69.09
2024-05-09T23:06:41.423Z,68.95
2024-05-09T23:11:43.887Z,68.94
2024-05-09T23:16:45.864Z,69.26
2024-05-09T23:21:47.482Z,69.41
2024-05-09T23:26:49.188Z,69.62
2024-05-09T23:31:50.789Z,69.54
2024-05-09T23:36:52.319Z,70.10
2024-05-09T23:41:53.868Z,69.71
2024-05-09T23:46:55.507Z,69.86
2024-05-09T23:51:57.578Z,69.99
2024-05-09T23:56:59.092Z,69.46
